createdAt,value
2019-03-06T00:00:04.053Z,5.33
2019-03-06T00:01:04.525Z,5.32
2019-03-06T00:02:04.796Z,5.32
2019-03-06T00:03:04.823Z,5.32
2019-03-06T00:04:05.104Z,5.32
2019-03-06T00:05:05.252Z,5.32
2019-03-06T00:06:05.388Z,5.33
2019-03-06T00:07:05.472Z,5.33
2019-03-06T00:08:05.594Z,5.33
2019-03-06T00:09:05.801Z,5.33
2019-03-06T00:10:05.949Z,5.33
2019-03-06T00:11:06.151Z,5.33
2019-03-06T00:12:06.341Z,5.33
2019-03-06T00:13:06.593Z,5.34
2019-03-06T00:14:06.820Z,5.35
2019-03-06T00:15:07.016Z,5.36
2019-03-06T00:16:07.239Z,5.35
2019-03-06T00:17:07.411Z,5.38
2019-03-06T00:18:07.505Z,5.39
2019-03-06T00:19:07.552Z,5.41
2019-03-06T00:20:07.707Z,5.41
2019-03-06T00:21:07.758Z,5.43
2019-03-06T00:22:07.911Z,5.43
2019-03-06T00:23:13.290Z,5.43
2019-03-06T00:24:08.595Z,5.45
2019-03-06T00:25:08.748Z,5.45
2019-03-06T00:26:08.802Z,5.47
2019-03-06T00:27:09.037Z,5.50
2019-03-06T00:28:12.864Z,5.51
2019-03-06T00:29:09.492Z,5.54
2019-03-06T00:30:09.654Z,5.56
2019-03-06T00:31:09.909Z,5.57
2019-03-06T00:32:10.081Z,5.59
2019-03-06T00:33:13.643Z,5.62
2019-03-06T00:34:10.320Z,5.63
2019-03-06T00:35:10.365Z,5.63
2019-03-06T00:36:10.490Z,5.63
2019-03-06T00:37:10.649Z,5.66
2019-03-06T00:38:12.913Z,5.67
2019-03-06T00:39:11.137Z,5.68
2019-03-06T00:40:11.282Z,5.69
2019-03-06T00:41:11.608Z,5.69
2019-03-06T00:42:12.010Z,5.72
2019-03-06T00:43:14.286Z,5.74
2019-03-06T00:44:12.534Z,5.76
2019-03-06T00:45:12.649Z,5.78
2019-03-06T00:46:12.900Z,5.80
2019-03-06T00:47:13.123Z,5.82
2019-03-06T00:48:15.001Z,5.83
2019-03-06T00:49:13.621Z,5.86
2019-03-06T00:50:13.808Z,5.87
2019-03-06T00:51:13.950Z,5.88
2019-03-06T00:52:14.184Z,5.88
2019-03-06T00:53:16.682Z,5.91
2019-03-06T00:54:14.415Z,5.92
2019-03-06T00:55:14.648Z,5.92
2019-03-06T00:56:14.836Z,5.96
2019-03-06T00:57:15.032Z,5.99
2019-03-06T00:58:17.147Z,5.99
2019-03-06T00:59:15.336Z,6.01
2019-03-06T01:00:15.418Z,6.02
2019-03-06T01:01:15.241Z,6.05
2019-03-06T01:02:15.834Z,6.06
2019-03-06T01:03:18.153Z,6.10
2019-03-06T01:04:16.654Z,6.10
2019-03-06T01:05:17.094Z,6.12
2019-03-06T01:06:17.374Z,6.13
2019-03-06T01:07:17.501Z,6.15
2019-03-06T01:08:19.431Z,6.15
2019-03-06T01:09:18.080Z,6.17
2019-03-06T01:10:18.197Z,6.20
2019-03-06T01:11:18.458Z,6.20
2019-03-06T01:12:18.558Z,6.21
2019-03-06T01:13:20.217Z,6.22
2019-03-06T01:14:19.003Z,6.23
2019-03-06T01:15:19.112Z,6.24
2019-03-06T01:16:19.214Z,6.26
2019-03-06T01:17:19.316Z,6.26
2019-03-06T01:18:21.237Z,6.27
2019-03-06T01:19:19.780Z,6.27
2019-03-06T01:20:19.880Z,6.28
2019-03-06T01:21:19.981Z,6.29
2019-03-06T01:22:19.981Z,6.31
2019-03-06T01:23:22.376Z,6.31
2019-03-06T01:24:21.116Z,6.31
2019-03-06T01:25:21.238Z,6.32
2019-03-06T01:26:21.352Z,6.34
2019-03-06T01:27:21.533Z,6.33
2019-03-06T01:28:23.056Z,6.35
2019-03-06T01:29:21.770Z,6.35
2019-03-06T01:30:21.937Z,6.36
2019-03-06T01:31:22.152Z,6.37
2019-03-06T01:32:22.253Z,6.37
2019-03-06T01:33:23.507Z,6.37
2019-03-06T01:34:22.753Z,6.38
2019-03-06T01:35:23.060Z,6.39
2019-03-06T01:36:23.582Z,6.41
2019-03-06T01:37:23.915Z,6.41
2019-03-06T01:38:24.845Z,6.41
2019-03-06T01:39:24.706Z,6.41
2019-03-06T01:40:25.188Z,6.42
2019-03-06T01:41:25.124Z,6.40
2019-03-06T01:42:25.275Z,6.41
2019-03-06T01:43:26.051Z,6.42
2019-03-06T01:44:26.162Z,6.43
2019-03-06T01:45:26.624Z,6.44
2019-03-06T01:46:26.818Z,6.45
2019-03-06T01:47:26.955Z,6.45
2019-03-06T01:48:27.490Z,6.46
2019-03-06T01:49:27.150Z,6.47
2019-03-06T01:50:27.355Z,6.48
2019-03-06T01:51:27.441Z,6.48
2019-03-06T01:52:27.617Z,6.49
2019-03-06T01:53:27.974Z,6.50
2019-03-06T01:54:28.086Z,6.47
2019-03-06T01:55:28.227Z,6.49
2019-03-06T01:56:28.360Z,6.50
2019-03-06T01:57:28.425Z,6.49
2019-03-06T01:58:28.420Z,6.51
2019-03-06T01:59:29.073Z,6.51
2019-03-06T02:00:29.144Z,6.52
2019-03-06T02:01:29.236Z,6.52
2019-03-06T02:02:29.397Z,6.54
2019-03-06T02:03:29.479Z,6.53
2019-03-06T02:04:29.657Z,6.54
2019-03-06T02:05:29.901Z,6.54
2019-03-06T02:06:30.061Z,6.54
2019-03-06T02:07:30.190Z,6.56
2019-03-06T02:08:30.113Z,6.56
2019-03-06T02:09:30.868Z,6.55
2019-03-06T02:10:31.187Z,6.56
2019-03-06T02:11:31.465Z,6.54
2019-03-06T02:12:31.768Z,6.55
2019-03-06T02:13:31.879Z,6.56
2019-03-06T02:14:31.925Z,6.57
2019-03-06T02:15:32.082Z,6.57
2019-03-06T02:16:32.327Z,6.57
2019-03-06T02:17:32.452Z,6.59
2019-03-06T02:18:32.554Z,6.59
2019-03-06T02:19:32.655Z,6.61
2019-03-06T02:20:32.794Z,6.61
2019-03-06T02:21:32.937Z,6.63
2019-03-06T02:22:33.027Z,6.62
2019-03-06T02:23:33.147Z,6.62
2019-03-06T02:24:33.244Z,6.62
2019-03-06T02:25:33.386Z,6.62
2019-03-06T02:26:33.488Z,6.61
2019-03-06T02:27:33.537Z,6.61
2019-03-06T02:28:33.648Z,6.60
2019-03-06T02:29:33.810Z,6.57
2019-03-06T02:30:33.916Z,6.57
2019-03-06T02:31:34.018Z,6.54
2019-03-06T02:32:34.021Z,6.53
2019-03-06T02:33:34.145Z,6.51
2019-03-06T02:34:34.209Z,6.50
2019-03-06T02:35:34.238Z,6.50
2019-03-06T02:36:34.291Z,6.51
2019-03-06T02:37:34.364Z,6.51
2019-03-06T02:38:34.474Z,6.51
2019-03-06T02:39:34.538Z,6.53
2019-03-06T02:40:34.636Z,6.53
2019-03-06T02:41:34.750Z,6.53
2019-03-06T02:43:34.806Z,6.54
2019-03-06T02:44:34.815Z,6.56
2019-03-06T02:45:34.890Z,6.57
2019-03-06T02:46:35.015Z,6.58
2019-03-06T02:47:34.947Z,6.60
2019-03-06T02:48:35.398Z,6.60
2019-03-06T02:49:36.111Z,6.61
2019-03-06T02:50:36.288Z,6.62
2019-03-06T02:51:36.509Z,6.62
2019-03-06T02:52:36.671Z,6.62
2019-03-06T02:53:36.887Z,6.63
2019-03-06T02:54:37.051Z,6.64
2019-03-06T02:55:37.155Z,6.64
2019-03-06T02:56:37.320Z,6.64
2019-03-06T02:57:37.494Z,6.65
2019-03-06T02:58:37.865Z,6.65
2019-03-06T02:59:38.078Z,6.66
2019-03-06T03:00:38.559Z,6.66
2019-03-06T03:01:38.624Z,6.67
2019-03-06T03:02:38.799Z,6.66
2019-03-06T03:03:38.997Z,6.66
2019-03-06T03:04:39.301Z,6.66
2019-03-06T03:05:39.648Z,6.67
2019-03-06T03:06:39.725Z,6.67
2019-03-06T03:07:39.970Z,6.67
2019-03-06T03:08:40.173Z,6.67
2019-03-06T03:09:40.342Z,6.66
2019-03-06T03:10:40.556Z,6.66
2019-03-06T03:11:40.783Z,6.65
2019-03-06T03:12:40.937Z,6.64
2019-03-06T03:13:41.079Z,6.62
2019-03-06T03:14:41.183Z,6.62
2019-03-06T03:15:41.361Z,6.59
2019-03-06T03:16:41.452Z,6.56
2019-03-06T03:17:41.553Z,6.53
2019-03-06T03:18:41.724Z,6.48
2019-03-06T03:19:41.866Z,6.46
2019-03-06T03:20:42.045Z,6.42
2019-03-06T03:21:42.191Z,6.40
2019-03-06T03:22:42.393Z,6.38
2019-03-06T03:23:42.547Z,6.36
2019-03-06T03:24:42.749Z,6.34
2019-03-06T03:25:42.898Z,6.30
2019-03-06T03:26:43.064Z,6.27
2019-03-06T03:27:43.168Z,6.24
2019-03-06T03:28:43.337Z,6.21
2019-03-06T03:29:43.500Z,6.16
2019-03-06T03:30:43.659Z,6.13
2019-03-06T03:31:43.908Z,6.09
2019-03-06T03:32:44.006Z,6.05
2019-03-06T03:33:44.150Z,5.99
2019-03-06T03:34:44.298Z,5.96
2019-03-06T03:35:44.481Z,5.91
2019-03-06T03:36:44.538Z,5.87
2019-03-06T03:37:44.730Z,5.83
2019-03-06T03:38:44.913Z,5.80
2019-03-06T03:39:45.068Z,5.75
2019-03-06T03:40:45.177Z,5.72
2019-03-06T03:41:45.308Z,5.69
2019-03-06T03:42:45.530Z,5.65
2019-03-06T03:43:45.775Z,5.61
2019-03-06T03:44:46.075Z,5.58
2019-03-06T03:45:46.178Z,5.55
2019-03-06T03:46:46.485Z,5.52
2019-03-06T03:47:46.719Z,5.50
2019-03-06T03:48:46.952Z,5.45
2019-03-06T03:49:47.236Z,5.45
2019-03-06T03:50:47.390Z,5.45
2019-03-06T03:51:47.572Z,5.45
2019-03-06T03:52:47.691Z,5.48
2019-03-06T03:53:47.728Z,5.47
2019-03-06T03:54:47.783Z,5.49
2019-03-06T03:55:47.988Z,5.47
2019-03-06T03:56:48.058Z,5.49
2019-03-06T03:57:48.161Z,5.51
2019-03-06T03:58:48.347Z,5.52
2019-03-06T03:59:48.475Z,5.53
2019-03-06T04:00:48.550Z,5.53
2019-03-06T04:01:48.707Z,5.54
2019-03-06T04:02:48.790Z,5.54
2019-03-06T04:03:48.922Z,5.57
2019-03-06T04:04:49.059Z,5.58
2019-03-06T04:05:49.150Z,5.60
2019-03-06T04:06:49.242Z,5.61
2019-03-06T04:07:49.292Z,5.61
2019-03-06T04:08:49.434Z,5.62
2019-03-06T04:09:49.456Z,5.62
2019-03-06T04:10:49.512Z,5.61
2019-03-06T04:11:49.579Z,5.60
2019-03-06T04:12:49.672Z,5.61
2019-03-06T04:13:49.756Z,5.62
2019-03-06T04:14:49.788Z,5.63
2019-03-06T04:15:49.945Z,5.63
2019-03-06T04:16:50.004Z,5.65
2019-03-06T04:17:50.179Z,5.63
2019-03-06T04:18:50.311Z,5.66
2019-03-06T04:19:50.509Z,5.65
2019-03-06T04:20:50.711Z,5.65
2019-03-06T04:21:50.865Z,5.66
2019-03-06T04:22:51.062Z,5.65
2019-03-06T04:23:51.212Z,5.65
2019-03-06T04:24:51.385Z,5.63
2019-03-06T04:25:51.549Z,5.63
2019-03-06T04:26:51.963Z,5.64
2019-03-06T04:27:52.120Z,5.64
2019-03-06T04:28:52.293Z,5.66
2019-03-06T04:29:52.491Z,5.66
2019-03-06T04:30:52.691Z,5.68
2019-03-06T04:31:52.816Z,5.70
2019-03-06T04:32:52.978Z,5.70
2019-03-06T04:33:52.721Z,5.72
2019-03-06T04:34:53.400Z,5.73
2019-03-06T04:35:53.601Z,5.73
2019-03-06T04:36:53.779Z,5.73
2019-03-06T04:37:53.919Z,5.74
2019-03-06T04:39:09.736Z,5.72
2019-03-06T04:39:54.412Z,5.72
2019-03-06T04:40:54.638Z,5.71
2019-03-06T04:41:54.768Z,5.71
2019-03-06T04:42:54.919Z,5.71
2019-03-06T04:43:55.139Z,5.69
2019-03-06T04:44:55.426Z,5.66
2019-03-06T04:45:55.425Z,5.63
2019-03-06T04:46:55.735Z,5.61
2019-03-06T04:47:55.852Z,5.59
2019-03-06T04:48:56.029Z,5.56
2019-03-06T04:49:56.126Z,5.55
2019-03-06T04:50:56.341Z,5.51
2019-03-06T04:51:56.524Z,5.48
2019-03-06T04:52:56.659Z,5.44
2019-03-06T04:53:56.874Z,5.40
2019-03-06T04:54:57.127Z,5.39
2019-03-06T04:55:57.338Z,5.36
2019-03-06T04:56:57.461Z,5.31
2019-03-06T04:57:57.663Z,5.27
2019-03-06T04:58:57.903Z,5.23
2019-03-06T04:59:58.150Z,5.21
2019-03-06T05:00:58.423Z,5.20
2019-03-06T05:01:58.615Z,5.16
2019-03-06T05:02:58.753Z,5.13
2019-03-06T05:03:58.961Z,5.12
2019-03-06T05:04:59.185Z,5.10
2019-03-06T05:05:59.360Z,5.07
2019-03-06T05:06:59.505Z,5.07
2019-03-06T05:07:59.714Z,5.04
2019-03-06T05:09:59.923Z,4.98
2019-03-06T05:11:00.099Z,4.94
2019-03-06T05:12:00.170Z,4.92
2019-03-06T05:13:00.377Z,4.90
2019-03-06T05:14:00.681Z,4.88
2019-03-06T05:15:00.982Z,4.87
2019-03-06T05:16:01.210Z,4.85
2019-03-06T05:17:01.584Z,4.85
2019-03-06T05:18:01.749Z,4.84
2019-03-06T05:19:01.957Z,4.84
2019-03-06T05:20:02.063Z,4.84
2019-03-06T05:21:02.278Z,4.82
2019-03-06T05:22:02.531Z,4.84
2019-03-06T05:23:02.704Z,4.82
2019-03-06T05:24:02.874Z,4.82
2019-03-06T05:25:03.107Z,4.84
2019-03-06T05:26:03.275Z,4.85
2019-03-06T05:27:03.336Z,4.85
2019-03-06T05:28:03.457Z,4.85
2019-03-06T05:29:03.664Z,4.87
2019-03-06T05:30:03.964Z,4.86
2019-03-06T05:31:04.075Z,4.85
2019-03-06T05:32:04.264Z,4.84
2019-03-06T05:33:04.773Z,4.83
2019-03-06T05:34:04.952Z,4.81
2019-03-06T05:35:05.211Z,4.75
2019-03-06T05:36:05.118Z,4.72
2019-03-06T05:37:05.477Z,4.72
2019-03-06T05:38:05.854Z,4.71
2019-03-06T05:39:06.263Z,4.68
2019-03-06T05:41:06.427Z,4.67
2019-03-06T05:42:06.607Z,4.64
2019-03-06T05:43:06.782Z,4.62
2019-03-06T05:44:06.889Z,4.59
2019-03-06T05:45:07.030Z,4.58
2019-03-06T05:46:07.252Z,4.56
2019-03-06T05:47:07.364Z,4.54
2019-03-06T05:48:12.383Z,4.54
2019-03-06T05:49:07.559Z,4.53
2019-03-06T05:50:07.688Z,4.49
2019-03-06T05:51:07.879Z,4.47
2019-03-06T05:52:08.058Z,4.47
2019-03-06T05:53:13.495Z,4.47
2019-03-06T05:54:08.675Z,4.44
2019-03-06T05:55:08.758Z,4.45
2019-03-06T05:56:08.897Z,4.46
2019-03-06T05:57:09.058Z,4.47
2019-03-06T05:58:13.359Z,4.46
2019-03-06T05:59:09.504Z,4.47
2019-03-06T06:00:09.761Z,4.45
2019-03-06T06:01:10.025Z,4.44
2019-03-06T06:02:10.229Z,4.41
2019-03-06T06:03:12.792Z,4.40
2019-03-06T06:04:10.485Z,4.38
2019-03-06T06:05:10.633Z,4.35
2019-03-06T06:06:10.848Z,4.29
2019-03-06T06:07:11.103Z,4.26
2019-03-06T06:08:13.545Z,4.25
2019-03-06T06:09:11.770Z,4.23
2019-03-06T06:10:11.992Z,4.23
2019-03-06T06:11:12.127Z,4.21
2019-03-06T06:12:12.380Z,4.19
2019-03-06T06:13:14.599Z,4.19
2019-03-06T06:14:12.708Z,4.18
2019-03-06T06:15:12.902Z,4.20
2019-03-06T06:16:13.120Z,4.20
2019-03-06T06:17:13.209Z,4.21
2019-03-06T06:18:15.357Z,4.23
2019-03-06T06:19:13.463Z,4.23
2019-03-06T06:20:13.705Z,4.23
2019-03-06T06:21:14.031Z,4.24
2019-03-06T06:22:13.875Z,4.24
2019-03-06T06:23:16.509Z,4.25
2019-03-06T06:24:14.342Z,4.26
2019-03-06T06:25:14.380Z,4.27
2019-03-06T06:26:14.630Z,4.28
2019-03-06T06:27:14.799Z,4.29
2019-03-06T06:28:14.995Z,4.30
2019-03-06T06:29:15.207Z,4.32
2019-03-06T06:30:15.387Z,4.34
2019-03-06T06:31:15.634Z,4.36
2019-03-06T06:32:15.860Z,4.40
2019-03-06T06:33:16.117Z,4.42
2019-03-06T06:34:16.326Z,4.46
2019-03-06T06:35:16.526Z,4.51
2019-03-06T06:36:16.900Z,4.56
2019-03-06T06:37:17.097Z,4.61
2019-03-06T06:38:17.286Z,4.66
2019-03-06T06:39:17.406Z,4.70
2019-03-06T06:40:17.778Z,4.73
2019-03-06T06:41:17.981Z,4.77
2019-03-06T06:42:18.066Z,4.80
2019-03-06T06:43:18.284Z,4.82
2019-03-06T06:44:18.310Z,4.85
2019-03-06T06:45:18.419Z,4.88
2019-03-06T06:46:18.620Z,4.90
2019-03-06T06:47:18.811Z,4.93
2019-03-06T06:48:18.940Z,4.95
2019-03-06T06:49:19.016Z,4.97
2019-03-06T06:50:19.175Z,4.99
2019-03-06T06:51:19.303Z,5.01
2019-03-06T06:52:19.740Z,5.03
2019-03-06T06:53:20.146Z,5.04
2019-03-06T06:54:20.417Z,5.06
2019-03-06T06:55:20.876Z,5.08
2019-03-06T06:56:21.030Z,5.09
2019-03-06T06:57:21.400Z,5.12
2019-03-06T06:58:30.934Z,5.14
2019-03-06T06:59:21.505Z,5.17
2019-03-06T07:00:22.048Z,5.20
2019-03-06T07:01:22.273Z,5.23
2019-03-06T07:02:22.636Z,5.26
2019-03-06T07:03:23.193Z,5.30
2019-03-06T07:04:23.411Z,5.34
2019-03-06T07:05:23.477Z,5.37
2019-03-06T07:06:23.548Z,5.41
2019-03-06T07:07:23.868Z,5.44
2019-03-06T07:08:24.127Z,5.47
2019-03-06T07:09:24.370Z,5.51
2019-03-06T07:10:24.700Z,5.55
2019-03-06T07:11:25.179Z,5.59
2019-03-06T07:12:25.533Z,5.63
2019-03-06T07:13:25.669Z,5.68
2019-03-06T07:14:25.830Z,5.73
2019-03-06T07:15:26.389Z,5.77
2019-03-06T07:16:26.412Z,5.83
2019-03-06T07:17:26.782Z,5.88
2019-03-06T07:18:26.849Z,5.93
2019-03-06T07:19:27.131Z,5.98
2019-03-06T07:20:27.713Z,6.04
2019-03-06T07:21:28.016Z,6.09
2019-03-06T07:22:28.346Z,6.13
2019-03-06T07:23:28.489Z,6.18
2019-03-06T07:24:28.628Z,6.23
2019-03-06T07:25:28.820Z,6.28
2019-03-06T07:26:29.282Z,6.34
2019-03-06T07:27:29.679Z,6.41
2019-03-06T07:28:29.548Z,6.48
2019-03-06T07:29:29.853Z,6.55
2019-03-06T07:30:30.105Z,6.62
2019-03-06T07:31:30.267Z,6.68
2019-03-06T07:32:30.666Z,6.75
2019-03-06T07:33:30.757Z,6.80
2019-03-06T07:34:31.282Z,6.86
2019-03-06T07:35:31.670Z,6.92
2019-03-06T07:36:31.812Z,6.98
2019-03-06T07:37:31.756Z,7.03
2019-03-06T07:38:31.899Z,7.09
2019-03-06T07:39:32.307Z,7.15
2019-03-06T07:40:32.405Z,7.21
2019-03-06T07:41:32.735Z,7.27
2019-03-06T07:42:33.077Z,7.33
2019-03-06T07:43:33.282Z,7.38
2019-03-06T07:44:33.699Z,7.42
2019-03-06T07:45:33.764Z,7.47
2019-03-06T07:46:34.117Z,7.52
2019-03-06T07:47:34.499Z,7.56
2019-03-06T07:48:34.861Z,7.60
2019-03-06T07:49:44.419Z,7.65
2019-03-06T07:50:35.275Z,7.71
2019-03-06T07:51:35.651Z,7.76
2019-03-06T07:52:35.669Z,7.83
2019-03-06T07:53:35.869Z,7.89
2019-03-06T07:54:35.921Z,7.95
2019-03-06T07:55:36.030Z,8.03
2019-03-06T07:56:36.404Z,8.09
2019-03-06T07:57:36.621Z,8.15
2019-03-06T07:58:36.552Z,8.22
2019-03-06T07:59:36.802Z,8.28
2019-03-06T08:00:37.009Z,8.34
2019-03-06T08:01:37.139Z,8.40
2019-03-06T08:02:37.271Z,8.45
2019-03-06T08:03:37.493Z,8.51
2019-03-06T08:04:37.949Z,8.56
2019-03-06T08:05:38.044Z,8.61
2019-03-06T08:06:38.184Z,8.66
2019-03-06T08:07:38.359Z,8.72
2019-03-06T08:08:38.571Z,8.78
2019-03-06T08:09:38.723Z,8.85
2019-03-06T08:10:38.835Z,8.92
2019-03-06T08:11:38.994Z,8.99
2019-03-06T08:12:40.055Z,9.06
2019-03-06T08:13:39.603Z,9.14
2019-03-06T08:14:39.781Z,9.19
2019-03-06T08:15:39.978Z,9.25
2019-03-06T08:16:40.363Z,9.30
2019-03-06T08:17:40.424Z,9.34
2019-03-06T08:18:40.700Z,9.39
2019-03-06T08:19:40.999Z,9.44
2019-03-06T08:20:41.313Z,9.49
2019-03-06T08:21:41.666Z,9.55
2019-03-06T08:22:41.823Z,9.60
2019-03-06T08:23:42.175Z,9.67
2019-03-06T08:24:42.191Z,9.74
2019-03-06T08:25:42.241Z,9.80
2019-03-06T08:26:42.367Z,9.86
2019-03-06T08:27:42.614Z,9.92
2019-03-06T08:28:42.840Z,10.01
2019-03-06T08:29:43.048Z,10.12
2019-03-06T08:30:43.412Z,10.21
2019-03-06T08:31:43.530Z,10.51
2019-03-06T08:32:44.081Z,10.56
2019-03-06T08:33:44.267Z,10.68
2019-03-06T08:34:44.522Z,10.85
2019-03-06T08:35:44.600Z,11.06
2019-03-06T08:36:44.751Z,11.25
2019-03-06T08:37:44.954Z,12.07
2019-03-06T08:38:45.207Z,12.37
2019-03-06T08:39:45.469Z,12.43
2019-03-06T08:40:45.706Z,12.53
2019-03-06T08:41:45.903Z,12.62
2019-03-06T08:42:46.081Z,12.69
2019-03-06T08:43:46.298Z,12.76
2019-03-06T08:44:46.436Z,13.17
2019-03-06T08:45:46.616Z,13.17
2019-03-06T08:46:46.876Z,13.13
2019-03-06T08:47:46.929Z,13.11
2019-03-06T08:48:47.158Z,13.13
2019-03-06T08:49:47.418Z,13.14
2019-03-06T08:50:47.685Z,13.12
2019-03-06T08:51:47.718Z,13.11
2019-03-06T08:52:47.918Z,13.07
2019-03-06T08:53:48.163Z,13.16
2019-03-06T08:54:48.509Z,13.64
2019-03-06T08:55:48.499Z,13.73
2019-03-06T08:56:48.650Z,13.87
2019-03-06T08:57:49.149Z,14.05
2019-03-06T08:58:49.316Z,14.79
2019-03-06T08:59:49.613Z,14.92
2019-03-06T09:00:49.665Z,15.15
2019-03-06T09:01:49.758Z,15.30
2019-03-06T09:02:49.740Z,15.45
2019-03-06T09:03:49.921Z,15.58
2019-03-06T09:04:50.098Z,15.61
2019-03-06T09:05:50.442Z,15.74
2019-03-06T09:06:50.704Z,15.83
2019-03-06T09:07:51.054Z,15.88
2019-03-06T09:08:51.324Z,15.93
2019-03-06T09:09:51.358Z,16.11
2019-03-06T09:10:51.750Z,16.18
2019-03-06T09:11:52.155Z,16.33
2019-03-06T09:12:52.069Z,16.36
2019-03-06T09:13:52.197Z,16.43
2019-03-06T09:14:52.418Z,16.44
2019-03-06T09:15:52.871Z,16.47
2019-03-06T09:16:53.153Z,16.60
2019-03-06T09:17:53.694Z,16.70
2019-03-06T09:18:53.804Z,16.85
2019-03-06T09:19:54.151Z,17.08
2019-03-06T09:20:54.441Z,17.17
2019-03-06T09:21:54.547Z,17.24
2019-03-06T09:22:54.957Z,17.33
2019-03-06T09:23:55.311Z,17.35
2019-03-06T09:24:55.565Z,17.35
2019-03-06T09:25:55.903Z,17.29
2019-03-06T09:26:56.087Z,17.12
2019-03-06T09:27:56.620Z,16.99
2019-03-06T09:29:00.916Z,16.79
2019-03-06T09:29:57.246Z,16.54
2019-03-06T09:30:58.187Z,16.51
2019-03-06T09:31:57.650Z,16.56
2019-03-06T09:32:57.781Z,16.76
2019-03-06T09:33:58.108Z,16.86
2019-03-06T09:34:58.514Z,17.15
2019-03-06T09:35:58.892Z,17.39
2019-03-06T09:36:59.111Z,17.52
2019-03-06T09:37:59.272Z,17.54
2019-03-06T09:38:59.376Z,17.47
2019-03-06T09:39:59.706Z,17.40
2019-03-06T09:40:59.966Z,17.34
2019-03-06T09:42:00.261Z,17.12
2019-03-06T09:43:00.485Z,17.11
2019-03-06T09:44:00.871Z,17.17
2019-03-06T09:45:00.753Z,17.41
2019-03-06T09:46:01.170Z,17.44
2019-03-06T09:47:01.843Z,17.59
2019-03-06T09:48:01.735Z,17.56
2019-03-06T09:49:10.914Z,17.61
2019-03-06T09:50:02.148Z,17.69
2019-03-06T09:51:02.237Z,17.81
2019-03-06T09:52:02.621Z,17.85
2019-03-06T09:53:02.834Z,17.68
2019-03-06T09:54:03.136Z,17.60
2019-03-06T09:55:03.245Z,17.54
2019-03-06T09:56:03.203Z,17.32
2019-03-06T09:57:03.281Z,17.03
2019-03-06T09:58:03.347Z,16.77
2019-03-06T09:59:03.421Z,16.72
2019-03-06T10:00:03.666Z,16.67
2019-03-06T10:01:03.725Z,16.73
2019-03-06T10:02:07.081Z,16.77
2019-03-06T10:03:04.397Z,16.77
2019-03-06T10:04:04.734Z,16.75
2019-03-06T10:05:04.824Z,16.67
2019-03-06T10:06:05.159Z,16.53
2019-03-06T10:07:05.717Z,16.39
2019-03-06T10:08:05.986Z,16.26
2019-03-06T10:09:06.360Z,16.19
2019-03-06T10:10:06.703Z,16.26
2019-03-06T10:11:07.031Z,16.29
2019-03-06T10:12:07.459Z,16.31
2019-03-06T10:13:07.710Z,16.39
2019-03-06T10:14:08.150Z,16.38
2019-03-06T10:15:08.164Z,16.54
2019-03-06T10:16:08.552Z,16.65
2019-03-06T10:17:08.865Z,16.80
2019-03-06T10:18:09.235Z,16.90
2019-03-06T10:19:09.668Z,16.98
2019-03-06T10:20:09.659Z,17.06
2019-03-06T10:21:09.761Z,17.10
2019-03-06T10:22:09.927Z,17.13
2019-03-06T10:23:10.106Z,17.22
2019-03-06T10:24:10.377Z,17.20
2019-03-06T10:25:10.591Z,17.10
2019-03-06T10:26:10.838Z,17.02
2019-03-06T10:27:11.036Z,16.95
2019-03-06T10:28:11.147Z,16.99
2019-03-06T10:29:11.251Z,17.15
2019-03-06T10:31:11.479Z,17.21
2019-03-06T10:32:11.672Z,17.48
2019-03-06T10:33:11.894Z,17.33
2019-03-06T10:34:12.265Z,17.23
2019-03-06T10:35:12.515Z,17.23
2019-03-06T10:36:12.803Z,17.15
2019-03-06T10:37:12.998Z,17.10
2019-03-06T10:38:16.667Z,17.11
2019-03-06T10:39:13.416Z,17.21
2019-03-06T10:40:13.718Z,17.35
2019-03-06T10:41:14.307Z,17.45
2019-03-06T10:42:14.549Z,17.46
2019-03-06T10:43:14.639Z,17.52
2019-03-06T10:44:14.817Z,17.60
2019-03-06T10:45:15.123Z,17.78
2019-03-06T10:46:15.343Z,17.92
2019-03-06T10:47:15.648Z,18.05
2019-03-06T10:48:15.931Z,18.20
2019-03-06T10:49:16.189Z,18.33
2019-03-06T10:50:19.901Z,18.41
2019-03-06T10:51:16.707Z,18.43
2019-03-06T10:52:16.819Z,18.57
2019-03-06T10:53:17.086Z,18.70
2019-03-06T10:54:17.265Z,18.69
2019-03-06T10:55:17.473Z,18.63
2019-03-06T10:56:17.700Z,18.65
2019-03-06T10:57:17.932Z,18.64
2019-03-06T10:58:18.148Z,18.72
2019-03-06T10:59:18.303Z,18.69
2019-03-06T11:00:18.446Z,18.78
2019-03-06T11:01:18.859Z,18.87
2019-03-06T11:02:18.946Z,18.61
2019-03-06T11:03:19.050Z,18.70
2019-03-06T11:04:19.272Z,18.68
2019-03-06T11:05:19.615Z,18.87
2019-03-06T11:06:19.751Z,19.18
2019-03-06T11:07:19.994Z,19.25
2019-03-06T11:08:20.302Z,19.84
2019-03-06T11:09:20.448Z,20.20
2019-03-06T11:10:23.597Z,20.33
2019-03-06T11:11:20.942Z,20.46
2019-03-06T11:12:21.114Z,20.73
2019-03-06T11:13:21.312Z,20.87
2019-03-06T11:14:21.498Z,20.73
2019-03-06T11:15:21.734Z,20.54
2019-03-06T11:16:21.865Z,20.87
2019-03-06T11:17:22.159Z,21.06
2019-03-06T11:18:22.252Z,21.03
2019-03-06T11:19:22.376Z,20.89
2019-03-06T11:20:22.596Z,21.08
2019-03-06T11:21:22.578Z,21.17
2019-03-06T11:22:22.817Z,21.15
2019-03-06T11:23:24.923Z,21.15
2019-03-06T11:24:23.081Z,21.23
2019-03-06T11:25:23.272Z,21.31
2019-03-06T11:26:23.466Z,21.24
2019-03-06T11:27:23.670Z,21.15
2019-03-06T11:28:23.810Z,21.17
2019-03-06T11:29:24.046Z,21.18
2019-03-06T11:30:24.283Z,21.18
2019-03-06T11:31:24.495Z,21.14
2019-03-06T11:32:24.728Z,21.37
2019-03-06T11:33:25.002Z,21.50
2019-03-06T11:34:25.148Z,21.61
2019-03-06T11:35:25.288Z,21.75
2019-03-06T11:36:25.528Z,21.90
2019-03-06T11:37:25.667Z,21.92
2019-03-06T11:38:25.899Z,21.85
2019-03-06T11:39:26.007Z,21.82
2019-03-06T11:40:26.116Z,21.73
2019-03-06T11:41:26.353Z,21.72
2019-03-06T11:42:26.430Z,21.75
2019-03-06T11:43:26.741Z,21.66
2019-03-06T11:44:26.934Z,21.70
2019-03-06T11:45:27.134Z,21.69
2019-03-06T11:46:27.335Z,21.60
2019-03-06T11:47:27.547Z,21.64
2019-03-06T11:48:27.738Z,21.75
2019-03-06T11:49:27.902Z,21.67
2019-03-06T11:50:28.004Z,21.73
2019-03-06T11:51:28.173Z,21.75
2019-03-06T11:52:28.311Z,21.77
2019-03-06T11:53:28.537Z,21.76
2019-03-06T11:54:28.866Z,21.71
2019-03-06T11:55:29.105Z,21.55
2019-03-06T11:56:29.310Z,21.58
2019-03-06T11:57:29.535Z,21.56
2019-03-06T11:58:29.707Z,21.39
2019-03-06T11:59:29.850Z,21.40
2019-03-06T12:00:30.093Z,21.35
2019-03-06T12:01:30.391Z,21.28
2019-03-06T12:02:30.839Z,21.29
2019-03-06T12:03:31.077Z,21.13
2019-03-06T12:04:31.334Z,21.06
2019-03-06T12:05:31.489Z,21.00
2019-03-06T12:06:31.678Z,20.90
2019-03-06T12:07:31.884Z,20.75
2019-03-06T12:08:32.004Z,20.73
2019-03-06T12:09:32.222Z,20.62
2019-03-06T12:10:32.365Z,20.60
2019-03-06T12:11:32.466Z,20.53
2019-03-06T12:12:32.564Z,20.37
2019-03-06T12:13:33.067Z,20.38
2019-03-06T12:14:33.201Z,20.37
2019-03-06T12:15:33.271Z,20.29
2019-03-06T12:16:41.642Z,20.22
2019-03-06T12:17:33.556Z,20.16
2019-03-06T12:18:34.200Z,20.08
2019-03-06T12:19:33.799Z,19.87
2019-03-06T12:20:33.905Z,19.85
2019-03-06T12:22:34.032Z,19.77
2019-03-06T12:23:34.217Z,19.53
2019-03-06T12:24:34.341Z,19.37
2019-03-06T12:25:34.523Z,19.33
2019-03-06T12:26:34.630Z,19.22
2019-03-06T12:27:34.765Z,19.15
2019-03-06T12:28:34.965Z,19.02
2019-03-06T12:29:35.156Z,18.98
2019-03-06T12:30:35.316Z,18.92
2019-03-06T12:31:35.414Z,18.79
2019-03-06T12:32:35.507Z,18.81
2019-03-06T12:33:35.716Z,18.71
2019-03-06T12:34:36.141Z,18.67
2019-03-06T12:35:36.382Z,18.58
2019-03-06T12:36:36.576Z,18.54
2019-03-06T12:37:36.766Z,18.51
2019-03-06T12:38:36.916Z,18.47
2019-03-06T12:39:37.115Z,18.31
2019-03-06T12:40:37.337Z,18.34
2019-03-06T12:41:37.560Z,18.32
2019-03-06T12:42:37.734Z,18.31
2019-03-06T12:43:37.942Z,18.28
2019-03-06T12:44:38.085Z,18.21
2019-03-06T12:45:38.294Z,18.18
2019-03-06T12:46:38.510Z,18.12
2019-03-06T12:47:38.964Z,18.07
2019-03-06T12:48:39.232Z,18.05
2019-03-06T12:49:39.439Z,18.05
2019-03-06T12:50:39.641Z,18.02
2019-03-06T12:51:39.746Z,18.01
2019-03-06T12:52:39.984Z,18.01
2019-03-06T12:53:40.202Z,18.01
2019-03-06T12:54:40.326Z,18.02
2019-03-06T12:55:40.540Z,18.01
2019-03-06T12:56:40.749Z,18.00
2019-03-06T12:57:40.883Z,17.97
2019-03-06T12:58:40.998Z,17.90
2019-03-06T12:59:41.253Z,17.83
2019-03-06T13:00:41.455Z,17.85
2019-03-06T13:01:41.700Z,17.88
2019-03-06T13:02:41.893Z,17.91
2019-03-06T13:03:42.302Z,17.95
2019-03-06T13:04:42.433Z,17.91
2019-03-06T13:05:42.662Z,17.88
2019-03-06T13:06:42.804Z,17.92
2019-03-06T13:07:43.506Z,17.85
2019-03-06T13:08:50.483Z,17.75
2019-03-06T13:09:43.636Z,17.80
2019-03-06T13:10:44.123Z,17.79
2019-03-06T13:11:43.851Z,17.72
2019-03-06T13:12:44.100Z,17.66
2019-03-06T13:13:44.317Z,17.65
2019-03-06T13:14:44.570Z,17.66
2019-03-06T13:15:44.946Z,17.69